sensor_id;sensor_type;location;lat;lon;timestamp;P1;durP1;ratioP1;P2;durP2;ratioP2
40755;SDS011;26461;45.630;9.418;2022-09-28T00:02:17;3.40;;;0.45;;
40755;SDS011;26461;45.630;9.418;2022-09-28T00:05:27;2.00;;;0.43;;
40755;SDS011;26461;45.630;9.418;2022-09-28T00:08:38;7.97;;;0.70;;
40755;SDS011;26461;45.630;9.418;2022-09-28T00:11:49;2.33;;;0.40;;
40755;SDS011;26461;45.630;9.418;2022-09-28T00:14:58;5.68;;;0.60;;
40755;SDS011;26461;45.630;9.418;2022-09-28T00:18:08;1.80;;;0.30;;
40755;SDS011;26461;45.630;9.418;2022-09-28T00:21:19;2.45;;;0.65;;
40755;SDS011;26461;45.630;9.418;2022-09-28T00:24:36;3.03;;;0.82;;
40755;SDS011;26461;45.630;9.418;2022-09-28T00:27:49;3.35;;;1.15;;
40755;SDS011;26461;45.630;9.418;2022-09-28T00:30:59;3.38;;;0.90;;
40755;SDS011;26461;45.630;9.418;2022-09-28T00:34:09;2.42;;;1.15;;
40755;SDS011;26461;45.630;9.418;2022-09-28T00:37:19;5.03;;;1.20;;
40755;SDS011;26461;45.630;9.418;2022-09-28T00:40:29;2.80;;;0.88;;
40755;SDS011;26461;45.630;9.418;2022-09-28T00:43:39;8.20;;;0.82;;
40755;SDS011;26461;45.630;9.418;2022-09-28T00:50:28;3.63;;;0.93;;
40755;SDS011;26461;45.630;9.418;2022-09-28T00:53:42;5.00;;;1.10;;
40755;SDS011;26461;45.630;9.418;2022-09-28T00:56:49;6.40;;;1.23;;
40755;SDS011;26461;45.630;9.418;2022-09-28T00:59:59;2.85;;;0.70;;
40755;SDS011;26461;45.630;9.418;2022-09-28T01:03:11;2.08;;;0.75;;
40755;SDS011;26461;45.630;9.418;2022-09-28T01:06:18;1.92;;;0.60;;
40755;SDS011;26461;45.630;9.418;2022-09-28T01:09:30;4.88;;;0.60;;
40755;SDS011;26461;45.630;9.418;2022-09-28T01:12:41;2.72;;;1.02;;
40755;SDS011;26461;45.630;9.418;2022-09-28T01:30:01;4.15;;;0.55;;
40755;SDS011;26461;45.630;9.418;2022-09-28T01:33:24;4.20;;;0.60;;
40755;SDS011;26461;45.630;9.418;2022-09-28T01:36:42;4.18;;;0.70;;
40755;SDS011;26461;45.630;9.418;2022-09-28T01:39:53;4.30;;;0.73;;
40755;SDS011;26461;45.630;9.418;2022-09-28T01:43:25;2.85;;;1.10;;
40755;SDS011;26461;45.630;9.418;2022-09-28T01:46:38;3.55;;;1.10;;
40755;SDS011;26461;45.630;9.418;2022-09-28T01:50:07;6.32;;;0.90;;
40755;SDS011;26461;45.630;9.418;2022-09-28T01:53:24;4.20;;;1.45;;
40755;SDS011;26461;45.630;9.418;2022-09-28T01:56:47;2.75;;;0.85;;
40755;SDS011;26461;45.630;9.418;2022-09-28T02:00:18;4.53;;;0.70;;
40755;SDS011;26461;45.630;9.418;2022-09-28T02:03:32;5.32;;;1.10;;
40755;SDS011;26461;45.630;9.418;2022-09-28T02:10:06;3.97;;;0.80;;
40755;SDS011;26461;45.630;9.418;2022-09-28T02:17:17;3.13;;;0.70;;
40755;SDS011;26461;45.630;9.418;2022-09-28T02:20:24;3.75;;;0.52;;
40755;SDS011;26461;45.630;9.418;2022-09-28T02:23:36;2.33;;;0.50;;
40755;SDS011;26461;45.630;9.418;2022-09-28T02:26:50;4.18;;;1.05;;
40755;SDS011;26461;45.630;9.418;2022-09-28T02:30:08;7.25;;;1.20;;
40755;SDS011;26461;45.630;9.418;2022-09-28T02:33:27;4.35;;;1.50;;
40755;SDS011;26461;45.630;9.418;2022-09-28T02:36:48;3.65;;;1.17;;
40755;SDS011;26461;45.630;9.418;2022-09-28T02:39:58;5.40;;;1.27;;
40755;SDS011;26461;45.630;9.418;2022-09-28T02:46:31;3.03;;;0.60;;
40755;SDS011;26461;45.630;9.418;2022-09-28T02:50:20;3.53;;;1.65;;
40755;SDS011;26461;45.630;9.418;2022-09-28T03:04:38;3.45;;;0.88;;
40755;SDS011;26461;45.630;9.418;2022-09-28T03:08:04;4.25;;;1.17;;
40755;SDS011;26461;45.630;9.418;2022-09-28T03:11:21;2.60;;;1.17;;
40755;SDS011;26461;45.630;9.418;2022-09-28T03:15:05;3.28;;;1.17;;
40755;SDS011;26461;45.630;9.418;2022-09-28T03:18:18;4.03;;;1.00;;
40755;SDS011;26461;45.630;9.418;2022-09-28T03:21:28;1.90;;;0.55;;
40755;SDS011;26461;45.630;9.418;2022-09-28T03:24:34;5.72;;;1.05;;
40755;SDS011;26461;45.630;9.418;2022-09-28T03:27:43;2.75;;;0.75;;
40755;SDS011;26461;45.630;9.418;2022-09-28T03:30:51;2.63;;;0.60;;
40755;SDS011;26461;45.630;9.418;2022-09-28T03:34:01;2.70;;;0.77;;
40755;SDS011;26461;45.630;9.418;2022-09-28T03:37:11;4.00;;;0.77;;
40755;SDS011;26461;45.630;9.418;2022-09-28T03:40:21;4.40;;;0.95;;
40755;SDS011;26461;45.630;9.418;2022-09-28T03:43:31;2.92;;;0.60;;
40755;SDS011;26461;45.630;9.418;2022-09-28T03:46:42;3.80;;;1.95;;
40755;SDS011;26461;45.630;9.418;2022-09-28T03:49:52;3.25;;;0.98;;
40755;SDS011;26461;45.630;9.418;2022-09-28T03:53:02;3.97;;;1.02;;
40755;SDS011;26461;45.630;9.418;2022-09-28T03:56:13;12.63;;;2.80;;
40755;SDS011;26461;45.630;9.418;2022-09-28T03:59:24;4.93;;;1.30;;
40755;SDS011;26461;45.630;9.418;2022-09-28T04:02:34;7.85;;;2.47;;
40755;SDS011;26461;45.630;9.418;2022-09-28T04:05:48;3.10;;;1.42;;
40755;SDS011;26461;45.630;9.418;2022-09-28T04:09:00;3.40;;;1.25;;
40755;SDS011;26461;45.630;9.418;2022-09-28T04:12:10;4.40;;;2.33;;
40755;SDS011;26461;45.630;9.418;2022-09-28T04:15:19;3.80;;;0.90;;
40755;SDS011;26461;45.630;9.418;2022-09-28T04:18:30;5.30;;;1.10;;
40755;SDS011;26461;45.630;9.418;2022-09-28T04:22:02;3.00;;;0.90;;
40755;SDS011;26461;45.630;9.418;2022-09-28T04:25:14;10.02;;;2.08;;
40755;SDS011;26461;45.630;9.418;2022-09-28T04:28:25;4.53;;;1.42;;
40755;SDS011;26461;45.630;9.418;2022-09-28T04:31:54;4.35;;;0.90;;
40755;SDS011;26461;45.630;9.418;2022-09-28T04:35:10;6.07;;;1.60;;
40755;SDS011;26461;45.630;9.418;2022-09-28T04:38:20;3.65;;;1.23;;
40755;SDS011;26461;45.630;9.418;2022-09-28T04:41:30;5.63;;;1.85;;
40755;SDS011;26461;45.630;9.418;2022-09-28T04:44:40;4.60;;;2.55;;
40755;SDS011;26461;45.630;9.418;2022-09-28T04:47:50;5.70;;;1.80;;
40755;SDS011;26461;45.630;9.418;2022-09-28T04:51:28;4.93;;;1.70;;
40755;SDS011;26461;45.630;9.418;2022-09-28T04:54:39;3.17;;;1.50;;
40755;SDS011;26461;45.630;9.418;2022-09-28T04:57:43;3.30;;;1.98;;
40755;SDS011;26461;45.630;9.418;2022-09-28T05:00:56;4.68;;;1.48;;
40755;SDS011;26461;45.630;9.418;2022-09-28T05:04:27;2.88;;;0.90;;
40755;SDS011;26461;45.630;9.418;2022-09-28T05:07:51;4.35;;;2.15;;
40755;SDS011;26461;45.630;9.418;2022-09-28T05:11:03;4.55;;;2.35;;
40755;SDS011;26461;45.630;9.418;2022-09-28T05:14:14;5.80;;;1.48;;
40755;SDS011;26461;45.630;9.418;2022-09-28T05:17:25;6.78;;;1.40;;
40755;SDS011;26461;45.630;9.418;2022-09-28T05:20:57;5.85;;;2.83;;
40755;SDS011;26461;45.630;9.418;2022-09-28T05:24:02;6.25;;;1.88;;
40755;SDS011;26461;45.630;9.418;2022-09-28T05:27:16;7.13;;;2.22;;
40755;SDS011;26461;45.630;9.418;2022-09-28T05:30:36;4.88;;;2.28;;
40755;SDS011;26461;45.630;9.418;2022-09-28T05:34:12;6.55;;;2.03;;
40755;SDS011;26461;45.630;9.418;2022-09-28T05:37:22;3.92;;;1.98;;
40755;SDS011;26461;45.630;9.418;2022-09-28T05:40:33;4.30;;;1.60;;
40755;SDS011;26461;45.630;9.418;2022-09-28T05:43:43;4.45;;;1.40;;
40755;SDS011;26461;45.630;9.418;2022-09-28T05:46:55;3.53;;;1.10;;
40755;SDS011;26461;45.630;9.418;2022-09-28T05:50:05;10.50;;;2.05;;
40755;SDS011;26461;45.630;9.418;2022-09-28T05:53:17;7.47;;;2.92;;
40755;SDS011;26461;45.630;9.418;2022-09-28T05:56:28;7.05;;;0.95;;
40755;SDS011;26461;45.630;9.418;2022-09-28T05:59:34;5.70;;;1.27;;
40755;SDS011;26461;45.630;9.418;2022-09-28T06:02:52;3.65;;;1.10;;
40755;SDS011;26461;45.630;9.418;2022-09-28T06:06:06;4.85;;;1.75;;
40755;SDS011;26461;45.630;9.418;2022-09-28T06:09:17;4.15;;;1.17;;
40755;SDS011;26461;45.630;9.418;2022-09-28T06:12:54;3.90;;;1.00;;
40755;SDS011;26461;45.630;9.418;2022-09-28T06:16:05;3.35;;;0.82;;
40755;SDS011;26461;45.630;9.418;2022-09-28T06:19:12;3.88;;;1.40;;
40755;SDS011;26461;45.630;9.418;2022-09-28T06:22:42;7.25;;;1.10;;
40755;SDS011;26461;45.630;9.418;2022-09-28T06:25:52;6.50;;;1.10;;
40755;SDS011;26461;45.630;9.418;2022-09-28T06:29:02;10.50;;;1.90;;
40755;SDS011;26461;45.630;9.418;2022-09-28T06:32:12;2.80;;;0.85;;
40755;SDS011;26461;45.630;9.418;2022-09-28T06:35:25;4.50;;;0.73;;
40755;SDS011;26461;45.630;9.418;2022-09-28T06:38:38;2.83;;;1.20;;
40755;SDS011;26461;45.630;9.418;2022-09-28T06:41:49;4.35;;;0.70;;
40755;SDS011;26461;45.630;9.418;2022-09-28T06:44:59;9.27;;;1.00;;
40755;SDS011;26461;45.630;9.418;2022-09-28T06:48:41;2.47;;;0.50;;
40755;SDS011;26461;45.630;9.418;2022-09-28T06:52:08;6.53;;;1.58;;
40755;SDS011;26461;45.630;9.418;2022-09-28T06:55:43;2.13;;;0.50;;
40755;SDS011;26461;45.630;9.418;2022-09-28T06:58:56;2.65;;;0.90;;
40755;SDS011;26461;45.630;9.418;2022-09-28T07:02:07;7.38;;;1.20;;
40755;SDS011;26461;45.630;9.418;2022-09-28T07:05:40;3.20;;;1.15;;
40755;SDS011;26461;45.630;9.418;2022-09-28T07:09:18;4.82;;;1.23;;
40755;SDS011;26461;45.630;9.418;2022-09-28T07:12:46;3.97;;;0.57;;
40755;SDS011;26461;45.630;9.418;2022-09-28T07:16:06;8.32;;;1.10;;
40755;SDS011;26461;45.630;9.418;2022-09-28T07:19:16;2.80;;;0.70;;
40755;SDS011;26461;45.630;9.418;2022-09-28T07:22:27;4.70;;;1.15;;
40755;SDS011;26461;45.630;9.418;2022-09-28T07:25:34;3.60;;;1.50;;
40755;SDS011;26461;45.630;9.418;2022-09-28T07:28:59;10.82;;;2.55;;
40755;SDS011;26461;45.630;9.418;2022-09-28T07:32:36;6.60;;;1.05;;
40755;SDS011;26461;45.630;9.418;2022-09-28T07:36:14;5.15;;;1.42;;
40755;SDS011;26461;45.630;9.418;2022-09-28T07:39:29;3.95;;;1.10;;
40755;SDS011;26461;45.630;9.418;2022-09-28T07:42:39;5.43;;;1.02;;
40755;SDS011;26461;45.630;9.418;2022-09-28T07:45:50;2.58;;;0.70;;
40755;SDS011;26461;45.630;9.418;2022-09-28T07:49:03;6.78;;;1.80;;
40755;SDS011;26461;45.630;9.418;2022-09-28T07:52:33;3.88;;;1.42;;
40755;SDS011;26461;45.630;9.418;2022-09-28T07:55:56;4.25;;;1.13;;
40755;SDS011;26461;45.630;9.418;2022-09-28T07:59:20;4.82;;;1.20;;
40755;SDS011;26461;45.630;9.418;2022-09-28T08:02:53;3.95;;;1.08;;
40755;SDS011;26461;45.630;9.418;2022-09-28T08:06:01;7.45;;;1.95;;
40755;SDS011;26461;45.630;9.418;2022-09-28T08:09:13;6.88;;;0.98;;
40755;SDS011;26461;45.630;9.418;2022-09-28T08:12:42;4.82;;;2.72;;
40755;SDS011;26461;45.630;9.418;2022-09-28T08:16:07;5.78;;;2.40;;
40755;SDS011;26461;45.630;9.418;2022-09-28T08:19:49;4.50;;;1.38;;
40755;SDS011;26461;45.630;9.418;2022-09-28T08:23:13;4.20;;;0.90;;
40755;SDS011;26461;45.630;9.418;2022-09-28T08:26:23;11.50;;;4.07;;
40755;SDS011;26461;45.630;9.418;2022-09-28T08:29:28;10.32;;;3.55;;
40755;SDS011;26461;45.630;9.418;2022-09-28T08:33:12;9.52;;;4.57;;
40755;SDS011;26461;45.630;9.418;2022-09-28T08:36:23;4.85;;;1.45;;
40755;SDS011;26461;45.630;9.418;2022-09-28T08:39:39;10.93;;;3.03;;
40755;SDS011;26461;45.630;9.418;2022-09-28T08:51:17;7.20;;;1.80;;
40755;SDS011;26461;45.630;9.418;2022-09-28T08:54:57;5.03;;;1.95;;
40755;SDS011;26461;45.630;9.418;2022-09-28T08:58:24;6.20;;;2.97;;
40755;SDS011;26461;45.630;9.418;2022-09-28T09:01:45;5.72;;;1.95;;
40755;SDS011;26461;45.630;9.418;2022-09-28T09:04:59;7.28;;;2.08;;
40755;SDS011;26461;45.630;9.418;2022-09-28T09:08:36;5.32;;;1.15;;
40755;SDS011;26461;45.630;9.418;2022-09-28T09:12:09;3.83;;;1.55;;
40755;SDS011;26461;45.630;9.418;2022-09-28T09:23:19;4.65;;;1.10;;
40755;SDS011;26461;45.630;9.418;2022-09-28T09:26:34;7.53;;;2.65;;
40755;SDS011;26461;45.630;9.418;2022-09-28T09:33:29;5.90;;;3.22;;
40755;SDS011;26461;45.630;9.418;2022-09-28T09:37:22;4.70;;;1.60;;
40755;SDS011;26461;45.630;9.418;2022-09-28T09:41:34;3.95;;;1.08;;
40755;SDS011;26461;45.630;9.418;2022-09-28T09:48:51;4.43;;;1.02;;
40755;SDS011;26461;45.630;9.418;2022-09-28T09:52:31;4.50;;;1.55;;
40755;SDS011;26461;45.630;9.418;2022-09-28T09:55:46;5.25;;;1.58;;
40755;SDS011;26461;45.630;9.418;2022-09-28T09:59:33;4.28;;;1.40;;
40755;SDS011;26461;45.630;9.418;2022-09-28T10:02:55;10.20;;;3.60;;
40755;SDS011;26461;45.630;9.418;2022-09-28T10:06:25;4.32;;;2.47;;
40755;SDS011;26461;45.630;9.418;2022-09-28T10:13:16;4.47;;;1.20;;
40755;SDS011;26461;45.630;9.418;2022-09-28T10:16:30;4.32;;;1.45;;
40755;SDS011;26461;45.630;9.418;2022-09-28T10:19:49;4.80;;;1.30;;
40755;SDS011;26461;45.630;9.418;2022-09-28T10:23:14;5.93;;;2.35;;
40755;SDS011;26461;45.630;9.418;2022-09-28T10:26:33;5.40;;;2.17;;
40755;SDS011;26461;45.630;9.418;2022-09-28T10:29:54;4.00;;;1.85;;
40755;SDS011;26461;45.630;9.418;2022-09-28T10:33:28;4.53;;;1.70;;
40755;SDS011;26461;45.630;9.418;2022-09-28T10:43:51;4.93;;;1.75;;
40755;SDS011;26461;45.630;9.418;2022-09-28T10:47:30;6.32;;;2.47;;
40755;SDS011;26461;45.630;9.418;2022-09-28T10:50:56;7.15;;;2.75;;
40755;SDS011;26461;45.630;9.418;2022-09-28T10:54:17;5.20;;;2.30;;
40755;SDS011;26461;45.630;9.418;2022-09-28T10:57:33;7.95;;;3.20;;
40755;SDS011;26461;45.630;9.418;2022-09-28T11:00:46;7.78;;;3.28;;
40755;SDS011;26461;45.630;9.418;2022-09-28T11:04:01;8.73;;;2.58;;
40755;SDS011;26461;45.630;9.418;2022-09-28T11:07:43;4.22;;;3.53;;
40755;SDS011;26461;45.630;9.418;2022-09-28T11:11:02;4.97;;;2.70;;
40755;SDS011;26461;45.630;9.418;2022-09-28T11:17:36;4.00;;;2.13;;
40755;SDS011;26461;45.630;9.418;2022-09-28T11:20:45;4.88;;;1.65;;
40755;SDS011;26461;45.630;9.418;2022-09-28T11:23:56;8.70;;;2.60;;
40755;SDS011;26461;45.630;9.418;2022-09-28T11:27:22;4.90;;;2.78;;
40755;SDS011;26461;45.630;9.418;2022-09-28T11:34:12;5.75;;;2.25;;
40755;SDS011;26461;45.630;9.418;2022-09-28T11:37:52;6.15;;;2.17;;
40755;SDS011;26461;45.630;9.418;2022-09-28T11:45:38;3.50;;;1.50;;
40755;SDS011;26461;45.630;9.418;2022-09-28T11:48:50;4.45;;;1.77;;
40755;SDS011;26461;45.630;9.418;2022-09-28T11:52:17;4.28;;;1.92;;
40755;SDS011;26461;45.630;9.418;2022-09-28T11:59:17;3.88;;;1.33;;
40755;SDS011;26461;45.630;9.418;2022-09-28T12:02:50;7.95;;;3.72;;
40755;SDS011;26461;45.630;9.418;2022-09-28T12:06:04;4.63;;;4.07;;
40755;SDS011;26461;45.630;9.418;2022-09-28T12:09:15;6.70;;;2.78;;
40755;SDS011;26461;45.630;9.418;2022-09-28T12:12:59;8.02;;;2.78;;
40755;SDS011;26461;45.630;9.418;2022-09-28T12:16:19;5.82;;;2.40;;
40755;SDS011;26461;45.630;9.418;2022-09-28T12:19:37;3.45;;;2.13;;
40755;SDS011;26461;45.630;9.418;2022-09-28T12:23:06;6.78;;;2.47;;
40755;SDS011;26461;45.630;9.418;2022-09-28T12:27:26;4.10;;;1.40;;
40755;SDS011;26461;45.630;9.418;2022-09-28T12:30:12;5.50;;;3.00;;
40755;SDS011;26461;45.630;9.418;2022-09-28T12:33:20;9.63;;;1.85;;
40755;SDS011;26461;45.630;9.418;2022-09-28T12:46:48;8.25;;;3.53;;
40755;SDS011;26461;45.630;9.418;2022-09-28T12:54:05;4.78;;;1.88;;
40755;SDS011;26461;45.630;9.418;2022-09-28T13:01:00;6.68;;;2.45;;
40755;SDS011;26461;45.630;9.418;2022-09-28T13:08:02;8.15;;;3.95;;
40755;SDS011;26461;45.630;9.418;2022-09-28T13:15:04;7.65;;;2.72;;
40755;SDS011;26461;45.630;9.418;2022-09-28T13:29:23;8.68;;;2.35;;
40755;SDS011;26461;45.630;9.418;2022-09-28T13:32:35;9.23;;;3.15;;
40755;SDS011;26461;45.630;9.418;2022-09-28T13:35:47;10.85;;;4.05;;
40755;SDS011;26461;45.630;9.418;2022-09-28T13:38:58;7.90;;;2.58;;
40755;SDS011;26461;45.630;9.418;2022-09-28T13:42:08;10.57;;;3.05;;
40755;SDS011;26461;45.630;9.418;2022-09-28T13:45:47;9.15;;;3.50;;
40755;SDS011;26461;45.630;9.418;2022-09-28T13:56:23;9.68;;;4.80;;
40755;SDS011;26461;45.630;9.418;2022-09-28T13:59:43;7.97;;;2.78;;
40755;SDS011;26461;45.630;9.418;2022-09-28T14:06:29;7.55;;;2.70;;
40755;SDS011;26461;45.630;9.418;2022-09-28T14:09:48;7.53;;;3.40;;
40755;SDS011;26461;45.630;9.418;2022-09-28T14:16:47;11.52;;;8.00;;
40755;SDS011;26461;45.630;9.418;2022-09-28T14:20:06;5.65;;;3.00;;
40755;SDS011;26461;45.630;9.418;2022-09-28T14:23:29;6.68;;;2.40;;
40755;SDS011;26461;45.630;9.418;2022-09-28T14:27:02;5.20;;;3.75;;
40755;SDS011;26461;45.630;9.418;2022-09-28T14:33:33;6.25;;;2.25;;
40755;SDS011;26461;45.630;9.418;2022-09-28T14:36:46;9.05;;;2.78;;
40755;SDS011;26461;45.630;9.418;2022-09-28T14:40:21;7.65;;;3.65;;
40755;SDS011;26461;45.630;9.418;2022-09-28T14:44:01;8.00;;;4.00;;
40755;SDS011;26461;45.630;9.418;2022-09-28T14:47:35;5.95;;;3.95;;
40755;SDS011;26461;45.630;9.418;2022-09-28T14:50:49;8.57;;;4.95;;
40755;SDS011;26461;45.630;9.418;2022-09-28T14:57:20;4.82;;;1.95;;
40755;SDS011;26461;45.630;9.418;2022-09-28T15:00:36;3.60;;;1.70;;
40755;SDS011;26461;45.630;9.418;2022-09-28T15:03:47;9.68;;;3.65;;
40755;SDS011;26461;45.630;9.418;2022-09-28T15:07:02;5.00;;;1.23;;
40755;SDS011;26461;45.630;9.418;2022-09-28T15:10:14;4.30;;;2.25;;
40755;SDS011;26461;45.630;9.418;2022-09-28T15:13:32;5.47;;;2.90;;
40755;SDS011;26461;45.630;9.418;2022-09-28T15:16:42;5.30;;;2.42;;
40755;SDS011;26461;45.630;9.418;2022-09-28T15:23:33;4.63;;;2.35;;
40755;SDS011;26461;45.630;9.418;2022-09-28T15:26:48;5.38;;;1.83;;
40755;SDS011;26461;45.630;9.418;2022-09-28T15:29:59;6.55;;;2.40;;
40755;SDS011;26461;45.630;9.418;2022-09-28T15:33:30;4.55;;;2.53;;
40755;SDS011;26461;45.630;9.418;2022-09-28T15:37:01;10.52;;;2.90;;
40755;SDS011;26461;45.630;9.418;2022-09-28T15:40:21;6.30;;;2.65;;
40755;SDS011;26461;45.630;9.418;2022-09-28T15:43:32;9.38;;;2.78;;
40755;SDS011;26461;45.630;9.418;2022-09-28T15:46:50;5.18;;;2.03;;
40755;SDS011;26461;45.630;9.418;2022-09-28T15:53:26;6.75;;;2.20;;
40755;SDS011;26461;45.630;9.418;2022-09-28T15:56:51;13.52;;;4.05;;
40755;SDS011;26461;45.630;9.418;2022-09-28T15:59:58;11.18;;;3.30;;
40755;SDS011;26461;45.630;9.418;2022-09-28T16:06:31;6.13;;;3.20;;
40755;SDS011;26461;45.630;9.418;2022-09-28T16:09:54;7.43;;;2.60;;
40755;SDS011;26461;45.630;9.418;2022-09-28T16:13:24;5.93;;;2.78;;
40755;SDS011;26461;45.630;9.418;2022-09-28T16:16:35;8.55;;;2.80;;
40755;SDS011;26461;45.630;9.418;2022-09-28T16:19:57;4.32;;;1.75;;
40755;SDS011;26461;45.630;9.418;2022-09-28T16:26:47;4.90;;;1.55;;
40755;SDS011;26461;45.630;9.418;2022-09-28T16:33:28;3.60;;;0.93;;
40755;SDS011;26461;45.630;9.418;2022-09-28T16:36:42;7.90;;;5.63;;
40755;SDS011;26461;45.630;9.418;2022-09-28T16:39:55;6.82;;;2.80;;
40755;SDS011;26461;45.630;9.418;2022-09-28T16:43:05;7.28;;;2.88;;
40755;SDS011;26461;45.630;9.418;2022-09-28T16:46:17;9.32;;;2.72;;
40755;SDS011;26461;45.630;9.418;2022-09-28T16:49:28;4.82;;;1.73;;
40755;SDS011;26461;45.630;9.418;2022-09-28T16:52:40;6.78;;;2.78;;
40755;SDS011;26461;45.630;9.418;2022-09-28T16:56:10;6.60;;;1.70;;
40755;SDS011;26461;45.630;9.418;2022-09-28T16:59:20;7.25;;;2.50;;
40755;SDS011;26461;45.630;9.418;2022-09-28T17:02:30;7.18;;;1.48;;
40755;SDS011;26461;45.630;9.418;2022-09-28T17:05:36;4.60;;;1.73;;
40755;SDS011;26461;45.630;9.418;2022-09-28T17:08:48;7.20;;;2.00;;
40755;SDS011;26461;45.630;9.418;2022-09-28T17:11:53;6.90;;;1.48;;
40755;SDS011;26461;45.630;9.418;2022-09-28T17:15:05;19.85;;;2.58;;
40755;SDS011;26461;45.630;9.418;2022-09-28T17:18:17;5.20;;;2.40;;
40755;SDS011;26461;45.630;9.418;2022-09-28T17:21:28;5.70;;;2.40;;
40755;SDS011;26461;45.630;9.418;2022-09-28T17:24:39;5.85;;;1.88;;
40755;SDS011;26461;45.630;9.418;2022-09-28T17:27:49;3.97;;;1.75;;
40755;SDS011;26461;45.630;9.418;2022-09-28T17:31:00;4.72;;;1.65;;
40755;SDS011;26461;45.630;9.418;2022-09-28T17:34:11;3.38;;;1.70;;
40755;SDS011;26461;45.630;9.418;2022-09-28T17:37:24;5.15;;;2.67;;
40755;SDS011;26461;45.630;9.418;2022-09-28T17:40:34;5.75;;;2.28;;
40755;SDS011;26461;45.630;9.418;2022-09-28T17:43:44;9.57;;;3.50;;
40755;SDS011;26461;45.630;9.418;2022-09-28T17:46:55;5.57;;;2.58;;
40755;SDS011;26461;45.630;9.418;2022-09-28T17:50:12;5.97;;;3.70;;
40755;SDS011;26461;45.630;9.418;2022-09-28T17:53:25;5.13;;;1.90;;
40755;SDS011;26461;45.630;9.418;2022-09-28T17:56:38;4.68;;;1.65;;
40755;SDS011;26461;45.630;9.418;2022-09-28T17:59:48;3.63;;;1.77;;
40755;SDS011;26461;45.630;9.418;2022-09-28T18:03:01;9.43;;;3.67;;
40755;SDS011;26461;45.630;9.418;2022-09-28T18:06:15;7.93;;;2.70;;
40755;SDS011;26461;45.630;9.418;2022-09-28T18:09:26;6.93;;;2.63;;
40755;SDS011;26461;45.630;9.418;2022-09-28T18:12:35;10.15;;;4.55;;
40755;SDS011;26461;45.630;9.418;2022-09-28T18:15:45;7.97;;;2.38;;
40755;SDS011;26461;45.630;9.418;2022-09-28T18:18:59;9.43;;;3.47;;
40755;SDS011;26461;45.630;9.418;2022-09-28T18:22:09;9.23;;;4.22;;
40755;SDS011;26461;45.630;9.418;2022-09-28T18:25:19;7.80;;;3.67;;
40755;SDS011;26461;45.630;9.418;2022-09-28T18:28:29;6.03;;;2.25;;
40755;SDS011;26461;45.630;9.418;2022-09-28T18:31:39;14.20;;;4.47;;
40755;SDS011;26461;45.630;9.418;2022-09-28T18:34:50;6.72;;;1.90;;
40755;SDS011;26461;45.630;9.418;2022-09-28T18:38:04;7.93;;;3.00;;
40755;SDS011;26461;45.630;9.418;2022-09-28T18:41:15;6.50;;;2.35;;
40755;SDS011;26461;45.630;9.418;2022-09-28T18:44:26;5.28;;;3.15;;
40755;SDS011;26461;45.630;9.418;2022-09-28T18:47:36;7.82;;;6.20;;
40755;SDS011;26461;45.630;9.418;2022-09-28T18:50:42;11.70;;;7.30;;
40755;SDS011;26461;45.630;9.418;2022-09-28T18:53:52;19.88;;;9.38;;
40755;SDS011;26461;45.630;9.418;2022-09-28T18:57:03;17.58;;;11.85;;
40755;SDS011;26461;45.630;9.418;2022-09-28T19:00:10;11.23;;;7.03;;
40755;SDS011;26461;45.630;9.418;2022-09-28T19:03:21;18.15;;;7.05;;
40755;SDS011;26461;45.630;9.418;2022-09-28T19:06:33;18.65;;;8.43;;
40755;SDS011;26461;45.630;9.418;2022-09-28T19:09:49;19.77;;;6.80;;
40755;SDS011;26461;45.630;9.418;2022-09-28T19:12:55;18.92;;;4.63;;
40755;SDS011;26461;45.630;9.418;2022-09-28T19:16:04;9.70;;;3.75;;
40755;SDS011;26461;45.630;9.418;2022-09-28T19:19:17;7.15;;;5.43;;
40755;SDS011;26461;45.630;9.418;2022-09-28T19:22:29;7.15;;;3.08;;
40755;SDS011;26461;45.630;9.418;2022-09-28T19:25:34;10.57;;;3.95;;
40755;SDS011;26461;45.630;9.418;2022-09-28T19:28:46;8.57;;;3.17;;
40755;SDS011;26461;45.630;9.418;2022-09-28T19:31:52;5.93;;;2.08;;
40755;SDS011;26461;45.630;9.418;2022-09-28T19:34:57;10.07;;;3.08;;
40755;SDS011;26461;45.630;9.418;2022-09-28T19:38:02;6.20;;;3.20;;
40755;SDS011;26461;45.630;9.418;2022-09-28T19:41:13;4.57;;;2.00;;
40755;SDS011;26461;45.630;9.418;2022-09-28T19:44:46;5.13;;;2.70;;
40755;SDS011;26461;45.630;9.418;2022-09-28T19:47:58;16.38;;;3.88;;
40755;SDS011;26461;45.630;9.418;2022-09-28T19:51:16;12.10;;;4.40;;
40755;SDS011;26461;45.630;9.418;2022-09-28T19:54:29;12.27;;;3.83;;
40755;SDS011;26461;45.630;9.418;2022-09-28T19:57:35;8.70;;;3.55;;
40755;SDS011;26461;45.630;9.418;2022-09-28T20:00:45;11.90;;;1.95;;
40755;SDS011;26461;45.630;9.418;2022-09-28T20:03:56;5.13;;;1.98;;
40755;SDS011;26461;45.630;9.418;2022-09-28T20:07:11;9.13;;;4.35;;
40755;SDS011;26461;45.630;9.418;2022-09-28T20:10:16;7.80;;;2.45;;
40755;SDS011;26461;45.630;9.418;2022-09-28T20:13:31;12.50;;;3.40;;
40755;SDS011;26461;45.630;9.418;2022-09-28T20:16:44;6.72;;;3.53;;
40755;SDS011;26461;45.630;9.418;2022-09-28T20:19:58;8.85;;;3.95;;
40755;SDS011;26461;45.630;9.418;2022-09-28T20:23:10;6.03;;;3.05;;
40755;SDS011;26461;45.630;9.418;2022-09-28T20:26:23;6.53;;;3.92;;
40755;SDS011;26461;45.630;9.418;2022-09-28T20:29:34;3.58;;;2.15;;
40755;SDS011;26461;45.630;9.418;2022-09-28T20:32:41;9.27;;;1.90;;
40755;SDS011;26461;45.630;9.418;2022-09-28T20:35:56;4.32;;;2.35;;
40755;SDS011;26461;45.630;9.418;2022-09-28T20:39:13;7.60;;;2.90;;
40755;SDS011;26461;45.630;9.418;2022-09-28T20:42:24;3.90;;;2.10;;
40755;SDS011;26461;45.630;9.418;2022-09-28T20:45:29;7.70;;;2.70;;
40755;SDS011;26461;45.630;9.418;2022-09-28T20:48:35;8.20;;;3.33;;
40755;SDS011;26461;45.630;9.418;2022-09-28T20:51:40;4.93;;;1.95;;
40755;SDS011;26461;45.630;9.418;2022-09-28T20:54:50;5.82;;;1.55;;
40755;SDS011;26461;45.630;9.418;2022-09-28T20:57:55;6.40;;;2.47;;
40755;SDS011;26461;45.630;9.418;2022-09-28T21:01:15;4.55;;;2.33;;
40755;SDS011;26461;45.630;9.418;2022-09-28T21:04:26;5.57;;;1.42;;
40755;SDS011;26461;45.630;9.418;2022-09-28T21:07:36;4.75;;;1.25;;
40755;SDS011;26461;45.630;9.418;2022-09-28T21:10:46;7.43;;;2.83;;
40755;SDS011;26461;45.630;9.418;2022-09-28T21:13:59;8.93;;;3.75;;
40755;SDS011;26461;45.630;9.418;2022-09-28T21:17:11;13.13;;;2.67;;
40755;SDS011;26461;45.630;9.418;2022-09-28T21:20:21;6.97;;;3.33;;
40755;SDS011;26461;45.630;9.418;2022-09-28T21:23:31;9.50;;;2.60;;
40755;SDS011;26461;45.630;9.418;2022-09-28T21:26:42;8.90;;;2.15;;
40755;SDS011;26461;45.630;9.418;2022-09-28T21:29:52;6.03;;;2.55;;
40755;SDS011;26461;45.630;9.418;2022-09-28T21:33:03;4.40;;;1.30;;
40755;SDS011;26461;45.630;9.418;2022-09-28T21:36:08;7.68;;;2.45;;
40755;SDS011;26461;45.630;9.418;2022-09-28T21:39:13;7.82;;;2.38;;
40755;SDS011;26461;45.630;9.418;2022-09-28T21:42:23;8.27;;;2.80;;
40755;SDS011;26461;45.630;9.418;2022-09-28T21:45:33;8.43;;;1.88;;
40755;SDS011;26461;45.630;9.418;2022-09-28T21:48:43;5.50;;;2.45;;
40755;SDS011;26461;45.630;9.418;2022-09-28T21:51:48;5.57;;;1.90;;
40755;SDS011;26461;45.630;9.418;2022-09-28T21:54:52;7.70;;;2.15;;
40755;SDS011;26461;45.630;9.418;2022-09-28T21:57:58;6.75;;;4.53;;
40755;SDS011;26461;45.630;9.418;2022-09-28T22:01:13;7.25;;;2.20;;
40755;SDS011;26461;45.630;9.418;2022-09-28T22:04:26;5.88;;;2.15;;
40755;SDS011;26461;45.630;9.418;2022-09-28T22:07:37;5.00;;;2.00;;
40755;SDS011;26461;45.630;9.418;2022-09-28T22:14:04;5.50;;;2.03;;
40755;SDS011;26461;45.630;9.418;2022-09-28T22:17:14;4.93;;;1.45;;
40755;SDS011;26461;45.630;9.418;2022-09-28T22:20:24;6.65;;;1.80;;
40755;SDS011;26461;45.630;9.418;2022-09-28T22:23:35;5.40;;;2.05;;
40755;SDS011;26461;45.630;9.418;2022-09-28T22:26:46;9.75;;;2.33;;